sensor_id;sensor_type;location;lat;lon;timestamp;P1;durP1;ratioP1;P2;durP2;ratioP2
5014;SDS011;2526;51.060;4.228;2023-04-15T00:01:18;2.25;;;1.70;;
5014;SDS011;2526;51.060;4.228;2023-04-15T00:03:45;4.47;;;2.28;;
5014;SDS011;2526;51.060;4.228;2023-04-15T00:06:10;3.83;;;1.92;;
5014;SDS011;2526;51.060;4.228;2023-04-15T00:08:36;5.60;;;1.52;;
5014;SDS011;2526;51.060;4.228;2023-04-15T00:11:02;1.55;;;1.17;;
5014;SDS011;2526;51.060;4.228;2023-04-15T00:13:32;3.33;;;1.45;;
5014;SDS011;2526;51.060;4.228;2023-04-15T00:16:01;4.00;;;1.65;;
5014;SDS011;2526;51.060;4.228;2023-04-15T00:18:26;1.85;;;1.60;;
5014;SDS011;2526;51.060;4.228;2023-04-15T00:20:53;3.33;;;2.03;;
5014;SDS011;2526;51.060;4.228;2023-04-15T00:23:19;2.53;;;1.55;;
5014;SDS011;2526;51.060;4.228;2023-04-15T00:25:44;1.60;;;1.30;;
5014;SDS011;2526;51.060;4.228;2023-04-15T00:28:10;2.05;;;1.83;;
5014;SDS011;2526;51.060;4.228;2023-04-15T00:30:35;2.55;;;1.35;;
5014;SDS011;2526;51.060;4.228;2023-04-15T00:33:01;2.20;;;1.70;;
5014;SDS011;2526;51.060;4.228;2023-04-15T00:35:28;5.85;;;2.63;;
5014;SDS011;2526;51.060;4.228;2023-04-15T00:37:53;4.25;;;2.38;;
5014;SDS011;2526;51.060;4.228;2023-04-15T00:40:19;2.42;;;1.75;;
5014;SDS011;2526;51.060;4.228;2023-04-15T00:42:45;4.35;;;1.98;;
5014;SDS011;2526;51.060;4.228;2023-04-15T00:45:11;3.75;;;2.47;;
5014;SDS011;2526;51.060;4.228;2023-04-15T00:47:37;4.38;;;2.40;;
5014;SDS011;2526;51.060;4.228;2023-04-15T00:50:03;2.83;;;2.38;;
5014;SDS011;2526;51.060;4.228;2023-04-15T00:52:29;2.00;;;1.88;;
5014;SDS011;2526;51.060;4.228;2023-04-15T00:54:54;4.28;;;2.35;;
5014;SDS011;2526;51.060;4.228;2023-04-15T00:57:20;3.40;;;2.60;;
5014;SDS011;2526;51.060;4.228;2023-04-15T00:59:46;2.83;;;1.85;;
5014;SDS011;2526;51.060;4.228;2023-04-15T01:02:13;3.28;;;2.08;;
5014;SDS011;2526;51.060;4.228;2023-04-15T01:04:39;6.25;;;2.72;;
5014;SDS011;2526;51.060;4.228;2023-04-15T01:07:04;7.00;;;2.83;;
5014;SDS011;2526;51.060;4.228;2023-04-15T01:09:31;6.30;;;2.58;;
5014;SDS011;2526;51.060;4.228;2023-04-15T01:11:57;3.40;;;2.60;;
5014;SDS011;2526;51.060;4.228;2023-04-15T01:14:23;4.65;;;2.47;;
5014;SDS011;2526;51.060;4.228;2023-04-15T01:16:48;3.90;;;2.20;;
5014;SDS011;2526;51.060;4.228;2023-04-15T01:19:14;4.00;;;2.30;;
5014;SDS011;2526;51.060;4.228;2023-04-15T01:21:40;8.43;;;2.35;;
5014;SDS011;2526;51.060;4.228;2023-04-15T01:24:07;10.68;;;2.50;;
5014;SDS011;2526;51.060;4.228;2023-04-15T01:26:34;3.08;;;1.98;;
5014;SDS011;2526;51.060;4.228;2023-04-15T01:28:59;4.32;;;2.30;;
5014;SDS011;2526;51.060;4.228;2023-04-15T01:31:25;3.13;;;1.90;;
5014;SDS011;2526;51.060;4.228;2023-04-15T01:33:51;3.63;;;1.95;;
5014;SDS011;2526;51.060;4.228;2023-04-15T01:36:17;5.13;;;3.40;;
5014;SDS011;2526;51.060;4.228;2023-04-15T01:38:42;3.03;;;1.67;;
5014;SDS011;2526;51.060;4.228;2023-04-15T01:41:08;2.75;;;1.80;;
5014;SDS011;2526;51.060;4.228;2023-04-15T01:43:34;2.83;;;2.17;;
5014;SDS011;2526;51.060;4.228;2023-04-15T01:46:00;2.08;;;1.67;;
5014;SDS011;2526;51.060;4.228;2023-04-15T01:48:26;3.20;;;2.10;;
5014;SDS011;2526;51.060;4.228;2023-04-15T01:50:53;4.10;;;2.67;;
5014;SDS011;2526;51.060;4.228;2023-04-15T01:53:18;4.70;;;2.13;;
5014;SDS011;2526;51.060;4.228;2023-04-15T01:55:44;5.70;;;2.65;;
5014;SDS011;2526;51.060;4.228;2023-04-15T01:58:10;4.72;;;2.25;;
5014;SDS011;2526;51.060;4.228;2023-04-15T02:00:35;2.67;;;1.75;;
5014;SDS011;2526;51.060;4.228;2023-04-15T02:03:01;1.83;;;1.67;;
5014;SDS011;2526;51.060;4.228;2023-04-15T02:05:26;5.53;;;1.75;;
5014;SDS011;2526;51.060;4.228;2023-04-15T02:07:52;1.98;;;1.48;;
5014;SDS011;2526;51.060;4.228;2023-04-15T02:10:18;5.22;;;2.72;;
5014;SDS011;2526;51.060;4.228;2023-04-15T02:12:43;3.50;;;2.20;;
5014;SDS011;2526;51.060;4.228;2023-04-15T02:15:09;2.65;;;1.73;;
5014;SDS011;2526;51.060;4.228;2023-04-15T02:17:35;5.43;;;2.47;;
5014;SDS011;2526;51.060;4.228;2023-04-15T02:20:00;4.32;;;1.80;;
5014;SDS011;2526;51.060;4.228;2023-04-15T02:22:26;3.75;;;2.03;;
5014;SDS011;2526;51.060;4.228;2023-04-15T02:24:52;3.22;;;1.58;;
5014;SDS011;2526;51.060;4.228;2023-04-15T02:27:17;4.07;;;1.77;;
5014;SDS011;2526;51.060;4.228;2023-04-15T02:29:43;2.38;;;1.67;;
5014;SDS011;2526;51.060;4.228;2023-04-15T02:32:09;6.53;;;2.08;;
5014;SDS011;2526;51.060;4.228;2023-04-15T02:34:36;3.42;;;1.98;;
5014;SDS011;2526;51.060;4.228;2023-04-15T02:37:03;2.85;;;2.50;;
5014;SDS011;2526;51.060;4.228;2023-04-15T02:39:29;5.93;;;2.30;;
5014;SDS011;2526;51.060;4.228;2023-04-15T02:41:55;5.80;;;2.20;;
5014;SDS011;2526;51.060;4.228;2023-04-15T02:44:23;2.65;;;2.00;;
5014;SDS011;2526;51.060;4.228;2023-04-15T02:46:49;2.10;;;1.90;;
5014;SDS011;2526;51.060;4.228;2023-04-15T02:49:17;2.88;;;1.48;;
5014;SDS011;2526;51.060;4.228;2023-04-15T02:51:42;3.72;;;2.05;;
5014;SDS011;2526;51.060;4.228;2023-04-15T02:54:08;3.15;;;1.73;;
5014;SDS011;2526;51.060;4.228;2023-04-15T02:56:33;2.83;;;1.73;;
5014;SDS011;2526;51.060;4.228;2023-04-15T02:58:59;3.50;;;2.00;;
5014;SDS011;2526;51.060;4.228;2023-04-15T03:01:24;7.53;;;3.03;;
5014;SDS011;2526;51.060;4.228;2023-04-15T03:03:50;4.10;;;2.03;;
5014;SDS011;2526;51.060;4.228;2023-04-15T03:06:16;4.30;;;2.35;;
5014;SDS011;2526;51.060;4.228;2023-04-15T03:08:41;6.25;;;1.88;;
5014;SDS011;2526;51.060;4.228;2023-04-15T03:11:06;6.03;;;2.05;;
5014;SDS011;2526;51.060;4.228;2023-04-15T03:13:32;2.50;;;2.30;;
5014;SDS011;2526;51.060;4.228;2023-04-15T03:15:58;3.17;;;2.08;;
5014;SDS011;2526;51.060;4.228;2023-04-15T03:18:23;2.45;;;1.40;;
5014;SDS011;2526;51.060;4.228;2023-04-15T03:20:49;2.78;;;2.15;;
5014;SDS011;2526;51.060;4.228;2023-04-15T03:23:14;2.47;;;1.65;;
5014;SDS011;2526;51.060;4.228;2023-04-15T03:25:40;5.80;;;2.38;;
5014;SDS011;2526;51.060;4.228;2023-04-15T03:28:06;6.80;;;2.13;;
5014;SDS011;2526;51.060;4.228;2023-04-15T03:30:31;4.78;;;2.00;;
5014;SDS011;2526;51.060;4.228;2023-04-15T03:32:56;2.45;;;1.90;;
5014;SDS011;2526;51.060;4.228;2023-04-15T03:35:22;3.67;;;3.38;;
5014;SDS011;2526;51.060;4.228;2023-04-15T03:37:47;3.47;;;2.35;;
5014;SDS011;2526;51.060;4.228;2023-04-15T03:40:13;2.45;;;2.25;;
5014;SDS011;2526;51.060;4.228;2023-04-15T03:42:38;4.03;;;2.33;;
5014;SDS011;2526;51.060;4.228;2023-04-15T03:45:04;4.22;;;2.60;;
5014;SDS011;2526;51.060;4.228;2023-04-15T03:47:30;3.00;;;2.63;;
5014;SDS011;2526;51.060;4.228;2023-04-15T03:49:56;3.67;;;1.92;;
5014;SDS011;2526;51.060;4.228;2023-04-15T03:52:21;5.30;;;2.65;;
5014;SDS011;2526;51.060;4.228;2023-04-15T03:54:47;3.88;;;1.90;;
5014;SDS011;2526;51.060;4.228;2023-04-15T03:57:12;2.95;;;2.00;;
5014;SDS011;2526;51.060;4.228;2023-04-15T03:59:38;4.03;;;2.65;;
5014;SDS011;2526;51.060;4.228;2023-04-15T04:02:03;2.47;;;2.28;;
5014;SDS011;2526;51.060;4.228;2023-04-15T04:04:28;5.38;;;3.55;;
5014;SDS011;2526;51.060;4.228;2023-04-15T04:06:54;6.97;;;2.75;;
5014;SDS011;2526;51.060;4.228;2023-04-15T04:09:19;11.15;;;3.38;;
5014;SDS011;2526;51.060;4.228;2023-04-15T04:11:45;3.95;;;3.03;;
5014;SDS011;2526;51.060;4.228;2023-04-15T04:14:10;6.63;;;2.00;;
5014;SDS011;2526;51.060;4.228;2023-04-15T04:16:36;4.30;;;2.53;;
5014;SDS011;2526;51.060;4.228;2023-04-15T04:19:01;4.78;;;2.65;;
5014;SDS011;2526;51.060;4.228;2023-04-15T04:21:27;3.58;;;2.40;;
5014;SDS011;2526;51.060;4.228;2023-04-15T04:23:52;4.22;;;2.90;;
5014;SDS011;2526;51.060;4.228;2023-04-15T04:26:18;3.95;;;2.85;;
5014;SDS011;2526;51.060;4.228;2023-04-15T04:28:43;4.53;;;2.80;;
5014;SDS011;2526;51.060;4.228;2023-04-15T04:31:09;9.15;;;2.90;;
5014;SDS011;2526;51.060;4.228;2023-04-15T04:33:35;3.95;;;2.90;;
5014;SDS011;2526;51.060;4.228;2023-04-15T04:36:00;7.78;;;3.08;;
5014;SDS011;2526;51.060;4.228;2023-04-15T04:38:26;5.22;;;2.83;;
5014;SDS011;2526;51.060;4.228;2023-04-15T04:40:51;5.80;;;2.95;;
5014;SDS011;2526;51.060;4.228;2023-04-15T04:43:17;7.97;;;2.78;;
5014;SDS011;2526;51.060;4.228;2023-04-15T04:45:42;4.70;;;2.70;;
5014;SDS011;2526;51.060;4.228;2023-04-15T04:48:07;3.20;;;2.55;;
5014;SDS011;2526;51.060;4.228;2023-04-15T04:50:34;5.45;;;3.38;;
5014;SDS011;2526;51.060;4.228;2023-04-15T04:53:00;8.23;;;2.92;;
5014;SDS011;2526;51.060;4.228;2023-04-15T04:55:26;5.10;;;2.88;;
5014;SDS011;2526;51.060;4.228;2023-04-15T04:57:52;4.38;;;2.92;;
5014;SDS011;2526;51.060;4.228;2023-04-15T05:00:17;9.85;;;3.03;;
5014;SDS011;2526;51.060;4.228;2023-04-15T05:02:43;4.85;;;2.63;;
5014;SDS011;2526;51.060;4.228;2023-04-15T05:05:09;4.93;;;3.38;;
5014;SDS011;2526;51.060;4.228;2023-04-15T05:07:36;4.57;;;2.50;;
5014;SDS011;2526;51.060;4.228;2023-04-15T05:10:01;7.53;;;2.00;;
5014;SDS011;2526;51.060;4.228;2023-04-15T05:12:27;6.13;;;2.67;;
5014;SDS011;2526;51.060;4.228;2023-04-15T05:14:53;5.22;;;3.53;;
5014;SDS011;2526;51.060;4.228;2023-04-15T05:17:18;3.72;;;2.65;;
5014;SDS011;2526;51.060;4.228;2023-04-15T05:19:44;7.75;;;3.35;;
5014;SDS011;2526;51.060;4.228;2023-04-15T05:22:09;4.57;;;2.33;;
5014;SDS011;2526;51.060;4.228;2023-04-15T05:24:35;3.95;;;3.28;;
5014;SDS011;2526;51.060;4.228;2023-04-15T05:27:00;5.95;;;2.45;;
5014;SDS011;2526;51.060;4.228;2023-04-15T05:29:26;4.65;;;2.72;;
5014;SDS011;2526;51.060;4.228;2023-04-15T05:31:51;7.13;;;3.10;;
5014;SDS011;2526;51.060;4.228;2023-04-15T05:34:17;5.07;;;3.63;;
5014;SDS011;2526;51.060;4.228;2023-04-15T05:36:42;7.78;;;3.75;;
5014;SDS011;2526;51.060;4.228;2023-04-15T05:39:08;6.85;;;3.10;;
5014;SDS011;2526;51.060;4.228;2023-04-15T05:41:33;8.45;;;3.03;;
5014;SDS011;2526;51.060;4.228;2023-04-15T05:43:59;5.82;;;2.97;;
5014;SDS011;2526;51.060;4.228;2023-04-15T05:46:24;5.45;;;2.88;;
5014;SDS011;2526;51.060;4.228;2023-04-15T05:48:50;7.15;;;3.85;;
5014;SDS011;2526;51.060;4.228;2023-04-15T05:51:16;5.47;;;3.65;;
5014;SDS011;2526;51.060;4.228;2023-04-15T05:53:41;3.42;;;2.42;;
5014;SDS011;2526;51.060;4.228;2023-04-15T05:56:07;5.00;;;2.72;;
5014;SDS011;2526;51.060;4.228;2023-04-15T05:58:32;7.68;;;4.50;;
5014;SDS011;2526;51.060;4.228;2023-04-15T06:00:58;5.65;;;2.97;;
5014;SDS011;2526;51.060;4.228;2023-04-15T06:03:23;7.00;;;3.33;;
5014;SDS011;2526;51.060;4.228;2023-04-15T06:05:49;9.63;;;3.00;;
5014;SDS011;2526;51.060;4.228;2023-04-15T06:08:15;7.25;;;3.90;;
5014;SDS011;2526;51.060;4.228;2023-04-15T06:10:40;6.05;;;3.15;;
5014;SDS011;2526;51.060;4.228;2023-04-15T06:13:06;8.07;;;3.58;;
5014;SDS011;2526;51.060;4.228;2023-04-15T06:15:32;5.30;;;3.13;;
5014;SDS011;2526;51.060;4.228;2023-04-15T06:17:57;5.05;;;3.63;;
5014;SDS011;2526;51.060;4.228;2023-04-15T06:20:22;7.85;;;4.28;;
5014;SDS011;2526;51.060;4.228;2023-04-15T06:22:48;10.43;;;3.42;;
5014;SDS011;2526;51.060;4.228;2023-04-15T06:25:13;4.80;;;2.97;;
5014;SDS011;2526;51.060;4.228;2023-04-15T06:27:39;7.00;;;3.70;;
5014;SDS011;2526;51.060;4.228;2023-04-15T06:30:06;7.28;;;2.97;;
5014;SDS011;2526;51.060;4.228;2023-04-15T06:32:32;6.35;;;4.40;;
5014;SDS011;2526;51.060;4.228;2023-04-15T06:34:57;5.38;;;3.88;;
5014;SDS011;2526;51.060;4.228;2023-04-15T06:37:22;6.97;;;3.33;;
5014;SDS011;2526;51.060;4.228;2023-04-15T06:39:48;5.68;;;4.22;;
5014;SDS011;2526;51.060;4.228;2023-04-15T06:42:13;7.68;;;4.75;;
5014;SDS011;2526;51.060;4.228;2023-04-15T06:44:39;7.03;;;3.85;;
5014;SDS011;2526;51.060;4.228;2023-04-15T06:47:04;7.68;;;3.60;;
5014;SDS011;2526;51.060;4.228;2023-04-15T06:49:30;6.13;;;4.00;;
5014;SDS011;2526;51.060;4.228;2023-04-15T06:51:55;9.45;;;6.15;;
5014;SDS011;2526;51.060;4.228;2023-04-15T06:54:21;6.13;;;4.38;;
5014;SDS011;2526;51.060;4.228;2023-04-15T06:56:47;5.95;;;4.35;;
5014;SDS011;2526;51.060;4.228;2023-04-15T06:59:12;9.43;;;4.15;;
5014;SDS011;2526;51.060;4.228;2023-04-15T07:01:41;5.95;;;4.15;;
5014;SDS011;2526;51.060;4.228;2023-04-15T07:04:06;8.25;;;4.38;;
5014;SDS011;2526;51.060;4.228;2023-04-15T07:06:32;6.22;;;4.38;;
5014;SDS011;2526;51.060;4.228;2023-04-15T07:08:58;7.18;;;4.45;;
5014;SDS011;2526;51.060;4.228;2023-04-15T07:11:24;8.98;;;3.92;;
5014;SDS011;2526;51.060;4.228;2023-04-15T07:13:50;12.15;;;4.50;;
5014;SDS011;2526;51.060;4.228;2023-04-15T07:16:15;7.35;;;5.32;;
5014;SDS011;2526;51.060;4.228;2023-04-15T07:18:41;5.88;;;5.13;;
5014;SDS011;2526;51.060;4.228;2023-04-15T07:21:07;10.82;;;5.43;;
5014;SDS011;2526;51.060;4.228;2023-04-15T07:23:33;5.28;;;4.78;;
5014;SDS011;2526;51.060;4.228;2023-04-15T07:25:58;9.05;;;5.68;;
5014;SDS011;2526;51.060;4.228;2023-04-15T07:28:24;7.60;;;5.03;;
5014;SDS011;2526;51.060;4.228;2023-04-15T07:30:49;11.43;;;5.88;;
5014;SDS011;2526;51.060;4.228;2023-04-15T07:33:15;13.60;;;5.30;;
5014;SDS011;2526;51.060;4.228;2023-04-15T07:35:40;7.15;;;5.22;;
5014;SDS011;2526;51.060;4.228;2023-04-15T07:38:06;9.13;;;5.72;;
5014;SDS011;2526;51.060;4.228;2023-04-15T07:40:31;6.95;;;5.03;;
5014;SDS011;2526;51.060;4.228;2023-04-15T07:42:57;7.32;;;5.20;;
5014;SDS011;2526;51.060;4.228;2023-04-15T07:45:23;7.68;;;5.57;;
5014;SDS011;2526;51.060;4.228;2023-04-15T07:47:48;8.35;;;5.15;;
5014;SDS011;2526;51.060;4.228;2023-04-15T07:50:15;8.45;;;4.95;;
5014;SDS011;2526;51.060;4.228;2023-04-15T07:52:41;12.77;;;7.20;;
5014;SDS011;2526;51.060;4.228;2023-04-15T07:55:07;8.00;;;5.03;;
5014;SDS011;2526;51.060;4.228;2023-04-15T07:57:36;10.75;;;6.03;;
5014;SDS011;2526;51.060;4.228;2023-04-15T08:00:02;5.10;;;4.35;;
5014;SDS011;2526;51.060;4.228;2023-04-15T08:02:29;3.45;;;3.13;;
5014;SDS011;2526;51.060;4.228;2023-04-15T08:04:54;5.32;;;3.88;;
5014;SDS011;2526;51.060;4.228;2023-04-15T08:07:20;8.77;;;4.57;;
5014;SDS011;2526;51.060;4.228;2023-04-15T08:09:45;8.07;;;3.85;;
5014;SDS011;2526;51.060;4.228;2023-04-15T08:12:11;8.32;;;3.88;;
5014;SDS011;2526;51.060;4.228;2023-04-15T08:14:38;4.68;;;3.90;;
5014;SDS011;2526;51.060;4.228;2023-04-15T08:17:03;9.65;;;3.85;;
5014;SDS011;2526;51.060;4.228;2023-04-15T08:19:29;4.80;;;3.75;;
5014;SDS011;2526;51.060;4.228;2023-04-15T08:21:55;8.13;;;4.90;;
5014;SDS011;2526;51.060;4.228;2023-04-15T08:24:21;8.70;;;4.65;;
5014;SDS011;2526;51.060;4.228;2023-04-15T08:26:46;12.80;;;3.58;;
5014;SDS011;2526;51.060;4.228;2023-04-15T08:29:12;7.15;;;4.15;;
5014;SDS011;2526;51.060;4.228;2023-04-15T08:31:38;6.97;;;3.45;;
5014;SDS011;2526;51.060;4.228;2023-04-15T08:34:03;8.73;;;4.72;;
5014;SDS011;2526;51.060;4.228;2023-04-15T08:36:29;4.82;;;3.90;;
5014;SDS011;2526;51.060;4.228;2023-04-15T08:38:56;5.85;;;4.50;;
5014;SDS011;2526;51.060;4.228;2023-04-15T08:41:22;5.38;;;3.35;;
5014;SDS011;2526;51.060;4.228;2023-04-15T08:43:52;4.28;;;3.30;;
5014;SDS011;2526;51.060;4.228;2023-04-15T08:46:19;5.55;;;4.38;;
5014;SDS011;2526;51.060;4.228;2023-04-15T08:48:45;5.38;;;3.30;;
5014;SDS011;2526;51.060;4.228;2023-04-15T08:51:11;6.22;;;3.75;;
5014;SDS011;2526;51.060;4.228;2023-04-15T08:53:40;6.55;;;4.20;;
5014;SDS011;2526;51.060;4.228;2023-04-15T08:56:07;7.47;;;4.20;;
5014;SDS011;2526;51.060;4.228;2023-04-15T08:58:37;7.40;;;4.57;;
5014;SDS011;2526;51.060;4.228;2023-04-15T09:01:02;4.82;;;3.55;;
5014;SDS011;2526;51.060;4.228;2023-04-15T09:03:28;6.72;;;3.97;;
5014;SDS011;2526;51.060;4.228;2023-04-15T09:05:54;8.45;;;3.47;;
5014;SDS011;2526;51.060;4.228;2023-04-15T09:08:20;7.05;;;3.95;;
5014;SDS011;2526;51.060;4.228;2023-04-15T09:10:45;5.72;;;3.33;;
5014;SDS011;2526;51.060;4.228;2023-04-15T09:13:11;6.82;;;3.40;;
5014;SDS011;2526;51.060;4.228;2023-04-15T09:15:39;6.32;;;3.33;;
5014;SDS011;2526;51.060;4.228;2023-04-15T09:18:05;3.55;;;3.22;;
5014;SDS011;2526;51.060;4.228;2023-04-15T09:20:30;3.45;;;2.30;;
5014;SDS011;2526;51.060;4.228;2023-04-15T09:23:02;4.25;;;2.40;;
5014;SDS011;2526;51.060;4.228;2023-04-15T09:25:35;1.97;;;1.80;;
5014;SDS011;2526;51.060;4.228;2023-04-15T09:28:01;1.42;;;1.30;;
5014;SDS011;2526;51.060;4.228;2023-04-15T09:30:27;2.72;;;2.15;;
5014;SDS011;2526;51.060;4.228;2023-04-15T09:32:58;8.73;;;2.65;;
5014;SDS011;2526;51.060;4.228;2023-04-15T09:35:27;4.88;;;2.63;;
5014;SDS011;2526;51.060;4.228;2023-04-15T09:38:07;2.00;;;1.65;;
5014;SDS011;2526;51.060;4.228;2023-04-15T09:43:01;3.90;;;2.55;;
5014;SDS011;2526;51.060;4.228;2023-04-15T09:45:28;4.47;;;2.20;;
5014;SDS011;2526;51.060;4.228;2023-04-15T09:47:55;4.97;;;1.98;;
5014;SDS011;2526;51.060;4.228;2023-04-15T09:50:21;3.35;;;2.60;;
5014;SDS011;2526;51.060;4.228;2023-04-15T09:52:46;2.13;;;1.65;;
5014;SDS011;2526;51.060;4.228;2023-04-15T09:55:17;2.35;;;1.70;;
5014;SDS011;2526;51.060;4.228;2023-04-15T09:57:48;4.32;;;2.30;;
5014;SDS011;2526;51.060;4.228;2023-04-15T10:00:14;4.47;;;1.45;;
5014;SDS011;2526;51.060;4.228;2023-04-15T10:02:43;1.60;;;1.13;;
5014;SDS011;2526;51.060;4.228;2023-04-15T10:05:13;2.25;;;1.48;;
5014;SDS011;2526;51.060;4.228;2023-04-15T10:07:39;2.30;;;1.60;;
5014;SDS011;2526;51.060;4.228;2023-04-15T10:10:05;3.30;;;1.40;;
5014;SDS011;2526;51.060;4.228;2023-04-15T10:12:31;2.08;;;1.60;;
5014;SDS011;2526;51.060;4.228;2023-04-15T10:15:04;3.05;;;1.42;;
5014;SDS011;2526;51.060;4.228;2023-04-15T10:18:02;2.67;;;1.58;;
5014;SDS011;2526;51.060;4.228;2023-04-15T10:20:29;1.63;;;1.33;;
5014;SDS011;2526;51.060;4.228;2023-04-15T10:22:58;3.17;;;1.52;;
5014;SDS011;2526;51.060;4.228;2023-04-15T10:25:25;2.42;;;1.73;;
5014;SDS011;2526;51.060;4.228;2023-04-15T10:27:52;4.00;;;1.60;;
5014;SDS011;2526;51.060;4.228;2023-04-15T10:30:18;2.70;;;1.42;;
5014;SDS011;2526;51.060;4.228;2023-04-15T10:32:56;2.80;;;1.88;;
5014;SDS011;2526;51.060;4.228;2023-04-15T10:35:21;2.72;;;1.65;;
5014;SDS011;2526;51.060;4.228;2023-04-15T10:37:47;2.88;;;1.60;;
5014;SDS011;2526;51.060;4.228;2023-04-15T10:40:22;5.15;;;2.58;;
5014;SDS011;2526;51.060;4.228;2023-04-15T10:42:48;4.25;;;2.20;;
5014;SDS011;2526;51.060;4.228;2023-04-15T10:45:15;1.55;;;1.20;;
5014;SDS011;2526;51.060;4.228;2023-04-15T10:47:42;1.90;;;1.33;;
5014;SDS011;2526;51.060;4.228;2023-04-15T10:50:08;2.83;;;1.40;;
5014;SDS011;2526;51.060;4.228;2023-04-15T10:52:33;2.75;;;1.77;;
5014;SDS011;2526;51.060;4.228;2023-04-15T10:55:02;3.78;;;1.40;;
5014;SDS011;2526;51.060;4.228;2023-04-15T10:57:34;4.95;;;1.55;;
5014;SDS011;2526;51.060;4.228;2023-04-15T11:00:01;1.65;;;1.17;;
5014;SDS011;2526;51.060;4.228;2023-04-15T11:03:32;3.78;;;2.17;;
5014;SDS011;2526;51.060;4.228;2023-04-15T11:08:06;1.35;;;1.23;;
5014;SDS011;2526;51.060;4.228;2023-04-15T11:13:03;1.50;;;1.08;;
5014;SDS011;2526;51.060;4.228;2023-04-15T11:18:14;1.40;;;0.88;;
5014;SDS011;2526;51.060;4.228;2023-04-15T11:20:42;4.43;;;1.40;;
5014;SDS011;2526;51.060;4.228;2023-04-15T11:23:11;1.63;;;1.00;;
5014;SDS011;2526;51.060;4.228;2023-04-15T11:25:37;2.15;;;1.17;;
5014;SDS011;2526;51.060;4.228;2023-04-15T11:28:04;1.75;;;1.20;;
5014;SDS011;2526;51.060;4.228;2023-04-15T11:30:32;2.95;;;1.35;;
5014;SDS011;2526;51.060;4.228;2023-04-15T11:33:08;1.67;;;1.27;;
5014;SDS011;2526;51.060;4.228;2023-04-15T11:36:06;1.33;;;1.23;;
5014;SDS011;2526;51.060;4.228;2023-04-15T11:38:41;1.40;;;0.85;;
5014;SDS011;2526;51.060;4.228;2023-04-15T11:41:10;3.63;;;0.88;;
5014;SDS011;2526;51.060;4.228;2023-04-15T11:43:36;2.55;;;0.95;;
5014;SDS011;2526;51.060;4.228;2023-04-15T11:46:04;1.10;;;0.98;;
5014;SDS011;2526;51.060;4.228;2023-04-15T11:48:40;2.13;;;1.10;;
5014;SDS011;2526;51.060;4.228;2023-04-15T11:51:06;1.75;;;0.82;;
5014;SDS011;2526;51.060;4.228;2023-04-15T11:56:05;5.57;;;0.88;;
5014;SDS011;2526;51.060;4.228;2023-04-15T11:58:33;1.70;;;1.10;;
5014;SDS011;2526;51.060;4.228;2023-04-15T12:00:59;1.30;;;1.20;;
5014;SDS011;2526;51.060;4.228;2023-04-15T12:08:50;4.97;;;1.05;;
5014;SDS011;2526;51.060;4.228;2023-04-15T12:11:15;1.02;;;0.73;;
5014;SDS011;2526;51.060;4.228;2023-04-15T12:13:48;2.03;;;1.20;;
5014;SDS011;2526;51.060;4.228;2023-04-15T12:16:20;4.22;;;1.42;;
5014;SDS011;2526;51.060;4.228;2023-04-15T12:18:51;1.58;;;0.93;;
5014;SDS011;2526;51.060;4.228;2023-04-15T12:21:19;2.75;;;1.40;;
5014;SDS011;2526;51.060;4.228;2023-04-15T12:23:50;1.65;;;1.17;;
5014;SDS011;2526;51.060;4.228;2023-04-15T12:26:16;2.67;;;1.80;;
5014;SDS011;2526;51.060;4.228;2023-04-15T12:28:42;4.72;;;1.65;;
5014;SDS011;2526;51.060;4.228;2023-04-15T12:31:08;4.13;;;1.90;;
5014;SDS011;2526;51.060;4.228;2023-04-15T12:33:34;2.53;;;1.10;;
5014;SDS011;2526;51.060;4.228;2023-04-15T12:35:59;1.52;;;1.20;;
5014;SDS011;2526;51.060;4.228;2023-04-15T12:38:25;1.30;;;1.20;;
5014;SDS011;2526;51.060;4.228;2023-04-15T12:40:50;1.50;;;1.00;;
5014;SDS011;2526;51.060;4.228;2023-04-15T12:43:16;1.77;;;1.25;;
5014;SDS011;2526;51.060;4.228;2023-04-15T12:45:41;2.17;;;1.52;;
5014;SDS011;2526;51.060;4.228;2023-04-15T12:48:07;1.35;;;1.13;;
5014;SDS011;2526;51.060;4.228;2023-04-15T12:50:34;2.00;;;1.30;;
5014;SDS011;2526;51.060;4.228;2023-04-15T12:52:59;2.90;;;1.02;;
5014;SDS011;2526;51.060;4.228;2023-04-15T12:55:25;1.67;;;1.10;;
5014;SDS011;2526;51.060;4.228;2023-04-15T12:57:50;0.88;;;0.88;;
5014;SDS011;2526;51.060;4.228;2023-04-15T13:00:16;2.67;;;1.55;;
5014;SDS011;2526;51.060;4.228;2023-04-15T13:02:42;2.35;;;1.33;;
5014;SDS011;2526;51.060;4.228;2023-04-15T13:05:08;2.22;;;1.48;;
5014;SDS011;2526;51.060;4.228;2023-04-15T13:07:33;3.08;;;1.20;;
5014;SDS011;2526;51.060;4.228;2023-04-15T13:09:59;2.25;;;1.50;;
5014;SDS011;2526;51.060;4.228;2023-04-15T13:12:25;2.63;;;1.42;;
5014;SDS011;2526;51.060;4.228;2023-04-15T13:14:51;4.32;;;1.42;;
5014;SDS011;2526;51.060;4.228;2023-04-15T13:17:17;2.63;;;1.30;;
5014;SDS011;2526;51.060;4.228;2023-04-15T13:19:44;2.22;;;1.17;;
5014;SDS011;2526;51.060;4.228;2023-04-15T13:22:10;2.40;;;1.50;;
5014;SDS011;2526;51.060;4.228;2023-04-15T13:24:36;1.23;;;0.90;;
5014;SDS011;2526;51.060;4.228;2023-04-15T13:27:03;1.75;;;1.55;;
5014;SDS011;2526;51.060;4.228;2023-04-15T13:29:28;0.85;;;0.75;;
5014;SDS011;2526;51.060;4.228;2023-04-15T13:31:54;3.42;;;1.33;;
5014;SDS011;2526;51.060;4.228;2023-04-15T13:34:20;1.92;;;1.02;;
5014;SDS011;2526;51.060;4.228;2023-04-15T13:36:45;1.42;;;0.80;;
5014;SDS011;2526;51.060;4.228;2023-04-15T13:39:11;3.97;;;1.30;;
5014;SDS011;2526;51.060;4.228;2023-04-15T13:41:36;1.55;;;1.00;;
5014;SDS011;2526;51.060;4.228;2023-04-15T13:44:02;1.75;;;1.02;;
5014;SDS011;2526;51.060;4.228;2023-04-15T13:46:29;3.58;;;1.08;;
5014;SDS011;2526;51.060;4.228;2023-04-15T13:48:54;2.15;;;1.42;;
5014;SDS011;2526;51.060;4.228;2023-04-15T13:51:20;0.93;;;0.68;;
5014;SDS011;2526;51.060;4.228;2023-04-15T13:53:46;1.83;;;1.00;;
5014;SDS011;2526;51.060;4.228;2023-04-15T13:56:11;1.33;;;0.90;;
5014;SDS011;2526;51.060;4.228;2023-04-15T13:58:37;1.20;;;0.95;;
5014;SDS011;2526;51.060;4.228;2023-04-15T14:01:02;1.70;;;1.02;;
5014;SDS011;2526;51.060;4.228;2023-04-15T14:03:28;1.20;;;0.88;;
5014;SDS011;2526;51.060;4.228;2023-04-15T14:05:53;2.45;;;1.55;;
5014;SDS011;2526;51.060;4.228;2023-04-15T14:08:20;3.35;;;1.42;;
5014;SDS011;2526;51.060;4.228;2023-04-15T14:10:46;1.02;;;0.93;;
5014;SDS011;2526;51.060;4.228;2023-04-15T14:13:13;7.07;;;3.75;;
5014;SDS011;2526;51.060;4.228;2023-04-15T14:15:39;4.05;;;1.55;;
5014;SDS011;2526;51.060;4.228;2023-04-15T14:18:05;1.25;;;0.95;;
5014;SDS011;2526;51.060;4.228;2023-04-15T14:20:31;2.75;;;1.65;;
5014;SDS011;2526;51.060;4.228;2023-04-15T14:22:56;4.88;;;1.85;;
5014;SDS011;2526;51.060;4.228;2023-04-15T14:25:21;2.33;;;1.35;;
5014;SDS011;2526;51.060;4.228;2023-04-15T14:27:47;6.45;;;2.03;;
5014;SDS011;2526;51.060;4.228;2023-04-15T14:30:13;2.60;;;1.42;;
5014;SDS011;2526;51.060;4.228;2023-04-15T14:32:38;3.45;;;2.30;;
5014;SDS011;2526;51.060;4.228;2023-04-15T14:35:04;4.18;;;2.08;;
5014;SDS011;2526;51.060;4.228;2023-04-15T14:37:29;3.70;;;2.58;;
5014;SDS011;2526;51.060;4.228;2023-04-15T14:39:55;5.82;;;2.47;;
5014;SDS011;2526;51.060;4.228;2023-04-15T14:42:20;4.35;;;2.35;;
5014;SDS011;2526;51.060;4.228;2023-04-15T14:44:46;2.72;;;2.30;;
5014;SDS011;2526;51.060;4.228;2023-04-15T14:47:11;3.85;;;2.22;;
5014;SDS011;2526;51.060;4.228;2023-04-15T14:49:37;4.43;;;2.72;;
5014;SDS011;2526;51.060;4.228;2023-04-15T14:52:03;5.03;;;2.92;;
5014;SDS011;2526;51.060;4.228;2023-04-15T14:54:28;5.35;;;2.25;;
5014;SDS011;2526;51.060;4.228;2023-04-15T14:56:54;5.18;;;2.42;;
5014;SDS011;2526;51.060;4.228;2023-04-15T14:59:20;4.97;;;2.67;;
5014;SDS011;2526;51.060;4.228;2023-04-15T15:01:46;5.13;;;2.35;;
5014;SDS011;2526;51.060;4.228;2023-04-15T15:04:11;4.68;;;3.10;;
5014;SDS011;2526;51.060;4.228;2023-04-15T15:06:37;8.77;;;2.30;;
5014;SDS011;2526;51.060;4.228;2023-04-15T15:09:03;4.03;;;2.38;;
5014;SDS011;2526;51.060;4.228;2023-04-15T15:11:28;6.10;;;2.25;;
5014;SDS011;2526;51.060;4.228;2023-04-15T15:13:54;6.72;;;2.97;;
5014;SDS011;2526;51.060;4.228;2023-04-15T15:16:20;3.78;;;2.13;;
5014;SDS011;2526;51.060;4.228;2023-04-15T15:18:46;3.97;;;2.42;;
5014;SDS011;2526;51.060;4.228;2023-04-15T15:21:11;9.20;;;2.42;;
5014;SDS011;2526;51.060;4.228;2023-04-15T15:23:37;4.50;;;2.50;;
5014;SDS011;2526;51.060;4.228;2023-04-15T15:26:02;4.95;;;2.80;;
5014;SDS011;2526;51.060;4.228;2023-04-15T15:28:28;3.50;;;1.75;;